Time;durP1;ratioP1;P1;durP2;ratioP2;P2;SDS_P1;SDS_P2;PMS_P1;PMS_P2;Temp;Humidity;BMP_temperature;BMP_pressure;BME280_temperature;BME280_humidity;BME280_pressure;Samples;Min_cycle;Max_cycle;Signal;HPM_P1;HPM_P2
2023/12/10 00:01:54;;;;;;;;;8.00;5.00;;;;;;;;5094624;27;46259;-82
2023/12/10 00:04:19;;;;;;;;;4.00;3.33;;;;;;;;5095485;27;48138;-81
2023/12/10 00:06:44;;;;;;;;;7.67;4.00;;;;;;;;5078748;28;45458;-81
2023/12/10 00:09:10;;;;;;;;;4.00;3.00;;;;;;;;5096156;27;45429;-80
2023/12/10 00:11:35;;;;;;;;;6.33;3.00;;;;;;;;5078803;28;45467;-80
2023/12/10 00:14:01;;;;;;;;;6.67;4.00;;;;;;;;5095590;27;47639;-80
2023/12/10 00:16:26;;;;;;;;;3.33;3.00;;;;;;;;5080072;27;45350;-81
2023/12/10 00:18:52;;;;;;;;;5.67;3.00;;;;;;;;5080195;27;45291;-81
2023/12/10 00:21:17;;;;;;;;;3.00;3.00;;;;;;;;5095590;27;47272;-80
2023/12/10 00:23:42;;;;;;;;;4.33;4.00;;;;;;;;5095274;27;46780;-79
2023/12/10 00:26:07;;;;;;;;;3.00;2.00;;;;;;;;5095682;27;45663;-80
2023/12/10 00:28:32;;;;;;;;;2.33;2.00;;;;;;;;5095933;27;45514;-79
2023/12/10 00:30:57;;;;;;;;;2.33;2.33;;;;;;;;5095573;27;46023;-79
2023/12/10 00:33:23;;;;;;;;;3.00;2.00;;;;;;;;5078410;28;48166;-80
2023/12/10 00:35:48;;;;;;;;;3.00;2.00;;;;;;;;5078715;27;45392;-79
2023/12/10 00:38:13;;;;;;;;;4.00;1.67;;;;;;;;5079855;27;45257;-79
2023/12/10 00:40:38;;;;;;;;;3.33;2.00;;;;;;;;5095503;27;47245;-80
2023/12/10 00:43:04;;;;;;;;;3.00;3.00;;;;;;;;5079747;27;45435;-80
2023/12/10 00:45:29;;;;;;;;;4.00;4.00;;;;;;;;5079596;28;45311;-80
2023/12/10 00:47:54;;;;;;;;;4.33;1.67;;;;;;;;5080329;27;45174;-79
2023/12/10 00:50:19;;;;;;;;;4.00;4.00;;;;;;;;5098556;27;47276;-81
2023/12/10 00:52:45;;;;;;;;;3.33;3.00;;;;;;;;5083125;27;45251;-79
2023/12/10 00:55:11;;;;;;;;;3.67;1.67;;;;;;;;5099007;27;45248;-80
2023/12/10 00:57:36;;;;;;;;;10.00;4.00;;;;;;;;5092161;27;45265;-80
2023/12/10 01:00:04;;;;;;;;;5.33;4.00;;;;;;;;5082937;27;45242;-81
2023/12/10 01:02:29;;;;;;;;;4.67;4.00;;;;;;;;5081568;28;48012;-81
2023/12/10 01:04:54;;;;;;;;;3.67;3.67;;;;;;;;5080287;28;45817;-79
2023/12/10 01:07:19;;;;;;;;;4.00;3.00;;;;;;;;5081435;28;45388;-80
2023/12/10 01:09:45;;;;;;;;;2.67;1.67;;;;;;;;5064704;28;45838;-80
2023/12/10 01:12:10;;;;;;;;;3.00;2.33;;;;;;;;5081516;28;47229;-80
2023/12/10 01:14:36;;;;;;;;;6.00;2.67;;;;;;;;5081330;28;45434;-80
2023/12/10 01:17:01;;;;;;;;;5.33;5.33;;;;;;;;5064640;28;45429;-80
2023/12/10 01:19:26;;;;;;;;;16.67;10.67;;;;;;;;5081299;28;46382;-80
2023/12/10 01:21:52;;;;;;;;;4.00;4.00;;;;;;;;5082637;28;46403;-80
2023/12/10 01:24:19;;;;;;;;;7.67;6.00;;;;;;;;5081238;28;46228;-80
2023/12/10 01:26:44;;;;;;;;;8.33;8.33;;;;;;;;5064355;28;45231;-80
2023/12/10 01:29:10;;;;;;;;;4.00;4.00;;;;;;;;5082513;28;45264;-79
2023/12/10 01:31:35;;;;;;;;;7.00;5.00;;;;;;;;5081274;28;47353;-80
2023/12/10 01:34:01;;;;;;;;;4.00;4.00;;;;;;;;5081054;28;45398;-80
2023/12/10 01:36:26;;;;;;;;;5.00;4.00;;;;;;;;5080779;28;45381;-78
2023/12/10 01:38:51;;;;;;;;;6.00;4.67;;;;;;;;5081092;28;46015;-80
2023/12/10 01:41:17;;;;;;;;;3.67;2.67;;;;;;;;5082478;28;46557;-80
2023/12/10 01:43:42;;;;;;;;;5.67;4.00;;;;;;;;5064028;28;45313;-79
2023/12/10 01:46:08;;;;;;;;;5.33;4.00;;;;;;;;5064340;28;45352;-80
2023/12/10 01:48:34;;;;;;;;;6.33;5.00;;;;;;;;5080605;28;45881;-80
2023/12/10 01:50:59;;;;;;;;;8.00;6.00;;;;;;;;5063725;28;48535;-80
2023/12/10 01:53:25;;;;;;;;;5.33;4.33;;;;;;;;5081101;28;45331;-80
2023/12/10 01:55:50;;;;;;;;;3.33;2.67;;;;;;;;5082214;28;45378;-79
2023/12/10 01:58:15;;;;;;;;;4.33;4.33;;;;;;;;5081888;28;45325;-79
2023/12/10 02:00:40;;;;;;;;;4.33;3.00;;;;;;;;5080178;28;48362;-80
2023/12/10 02:03:06;;;;;;;;;3.00;3.00;;;;;;;;5097947;27;45247;-81
2023/12/10 02:05:31;;;;;;;;;3.33;3.00;;;;;;;;5082059;27;45647;-79
2023/12/10 02:07:57;;;;;;;;;4.00;4.00;;;;;;;;5081965;28;45440;-79
2023/12/10 02:10:22;;;;;;;;;5.67;5.67;;;;;;;;5097666;27;47020;-80
2023/12/10 02:12:48;;;;;;;;;7.00;4.00;;;;;;;;5097750;27;45477;-80
2023/12/10 02:15:16;;;;;;;;;4.00;3.00;;;;;;;;5097820;27;45318;-80
2023/12/10 02:17:41;;;;;;;;;5.67;4.00;;;;;;;;5080598;28;46495;-78
2023/12/10 02:20:08;;;;;;;;;4.00;4.00;;;;;;;;5097322;27;47198;-80
2023/12/10 02:22:35;;;;;;;;;4.00;2.50;;;;;;;;5081685;27;45319;-83
2023/12/10 02:25:02;;;;;;;;;4.00;4.00;;;;;;;;5097496;27;45316;-79
2023/12/10 02:27:28;;;;;;;;;4.00;1.00;;;;;;;;5080481;28;46341;-79
2023/12/10 02:29:54;;;;;;;;;4.00;3.67;;;;;;;;5081726;28;45637;-80
2023/12/10 02:32:19;;;;;;;;;2.33;2.00;;;;;;;;5081811;27;45358;-80
2023/12/10 02:34:44;;;;;;;;;4.00;2.00;;;;;;;;5081684;27;45417;-79
2023/12/10 02:37:10;;;;;;;;;3.33;2.00;;;;;;;;5080012;28;47026;-80
2023/12/10 02:39:36;;;;;;;;;3.00;3.00;;;;;;;;5079053;28;46925;-79
2023/12/10 02:42:01;;;;;;;;;4.00;3.67;;;;;;;;5080058;28;45276;-80
2023/12/10 02:44:26;;;;;;;;;2.67;2.67;;;;;;;;5080213;28;45373;-79
2023/12/10 02:46:51;;;;;;;;;5.00;2.33;;;;;;;;5097460;27;47083;-78
2023/12/10 02:49:17;;;;;;;;;4.00;4.00;;;;;;;;5096741;27;46697;-80
2023/12/10 02:51:42;;;;;;;;;3.00;3.00;;;;;;;;5096906;27;45386;-80
2023/12/10 02:54:07;;;;;;;;;5.00;2.67;;;;;;;;5080083;28;45236;-80
2023/12/10 02:56:32;;;;;;;;;4.67;4.67;;;;;;;;5097079;27;47217;-80
2023/12/10 02:58:58;;;;;;;;;4.00;4.00;;;;;;;;5079744;28;47125;-80
2023/12/10 03:01:24;;;;;;;;;4.00;3.00;;;;;;;;5063017;28;45396;-79
2023/12/10 03:03:49;;;;;;;;;9.00;6.33;;;;;;;;5079774;28;45370;-79
2023/12/10 03:06:14;;;;;;;;;6.00;4.00;;;;;;;;5079600;28;45911;-80
2023/12/10 03:08:39;;;;;;;;;4.00;1.67;;;;;;;;5081095;28;45401;-80
2023/12/10 03:11:04;;;;;;;;;3.33;2.67;;;;;;;;5079042;28;46047;-80
2023/12/10 03:13:30;;;;;;;;;6.00;3.33;;;;;;;;5081135;28;45249;-79
2023/12/10 03:15:55;;;;;;;;;3.00;2.33;;;;;;;;5080991;28;45466;-81
2023/12/10 03:18:20;;;;;;;;;5.00;3.67;;;;;;;;5062478;28;48314;-80
2023/12/10 03:20:45;;;;;;;;;2.00;2.00;;;;;;;;5079443;28;45335;-79
2023/12/10 03:23:10;;;;;;;;;3.33;2.00;;;;;;;;5080917;28;45287;-79
2023/12/10 03:25:35;;;;;;;;;5.67;4.00;;;;;;;;5080795;28;45355;-80
2023/12/10 03:28:01;;;;;;;;;4.67;3.00;;;;;;;;5080776;28;45486;-78
2023/12/10 03:30:26;;;;;;;;;6.00;3.00;;;;;;;;5080645;28;45352;-79
2023/12/10 03:32:51;;;;;;;;;5.33;3.67;;;;;;;;5062716;28;45345;-79
2023/12/10 03:35:16;;;;;;;;;4.67;2.67;;;;;;;;5079015;28;47475;-77
2023/12/10 03:37:41;;;;;;;;;5.00;3.00;;;;;;;;5078756;28;47043;-80
2023/12/10 03:40:07;;;;;;;;;4.00;3.00;;;;;;;;5079133;28;46130;-78
2023/12/10 03:42:32;;;;;;;;;4.67;4.00;;;;;;;;5062442;28;45272;-80
2023/12/10 03:44:58;;;;;;;;;6.00;5.33;;;;;;;;5080608;28;45329;-80
2023/12/10 03:47:23;;;;;;;;;6.00;5.33;;;;;;;;5078990;28;47032;-79
2023/12/10 03:49:48;;;;;;;;;5.33;5.00;;;;;;;;5078810;28;45674;-79
2023/12/10 03:52:13;;;;;;;;;5.00;3.67;;;;;;;;5079151;28;45266;-80
2023/12/10 03:54:39;;;;;;;;;4.33;4.33;;;;;;;;5078937;28;46079;-81
2023/12/10 03:57:04;;;;;;;;;8.00;6.00;;;;;;;;5064153;28;47940;-80
2023/12/10 03:59:29;;;;;;;;;5.67;4.67;;;;;;;;5079028;28;45238;-80
2023/12/10 04:01:54;;;;;;;;;6.67;6.67;;;;;;;;5080455;28;45149;-79
2023/12/10 04:04:20;;;;;;;;;4.00;4.00;;;;;;;;5080166;27;45555;-79
2023/12/10 04:06:45;;;;;;;;;3.33;3.00;;;;;;;;5079847;27;45377;-80
2023/12/10 04:09:10;;;;;;;;;6.00;6.00;;;;;;;;5080342;27;45285;-80
2023/12/10 04:11:36;;;;;;;;;5.00;4.00;;;;;;;;5079040;28;45244;-80
2023/12/10 04:14:01;;;;;;;;;4.67;3.00;;;;;;;;5095688;27;46331;-80
2023/12/10 04:16:27;;;;;;;;;3.00;3.00;;;;;;;;5080081;27;45783;-80
2023/12/10 04:18:52;;;;;;;;;4.33;3.67;;;;;;;;5095679;27;45569;-79
2023/12/10 04:21:21;;;;;;;;;4.00;3.00;;;;;;;;5095773;27;45543;-79
2023/12/10 04:23:47;;;;;;;;;3.00;2.67;;;;;;;;5078822;27;45377;-80
2023/12/10 04:26:12;;;;;;;;;3.67;3.67;;;;;;;;5095418;27;46787;-80
2023/12/10 04:28:41;;;;;;;;;4.33;2.00;;;;;;;;5095635;27;45375;-79
2023/12/10 04:31:06;;;;;;;;;3.33;3.00;;;;;;;;5080091;27;45324;-78
2023/12/10 04:33:31;;;;;;;;;2.00;2.00;;;;;;;;5095376;27;46193;-79
2023/12/10 04:35:56;;;;;;;;;4.00;3.67;;;;;;;;5095219;27;47139;-80
2023/12/10 04:38:22;;;;;;;;;4.33;4.00;;;;;;;;5078427;28;45870;-81
2023/12/10 04:40:47;;;;;;;;;2.00;2.00;;;;;;;;5095820;27;45250;-80
2023/12/10 04:43:12;;;;;;;;;3.33;1.00;;;;;;;;5079899;27;45190;-79
2023/12/10 04:45:37;;;;;;;;;4.33;3.33;;;;;;;;5095317;27;48582;-80
2023/12/10 04:48:02;;;;;;;;;3.00;3.00;;;;;;;;5095282;27;46132;-80
2023/12/10 04:50:28;;;;;;;;;2.33;2.33;;;;;;;;5095453;27;45268;-81
2023/12/10 04:52:53;;;;;;;;;6.00;2.67;;;;;;;;5078019;28;46049;-81
2023/12/10 04:55:18;;;;;;;;;3.00;1.33;;;;;;;;5079588;27;45599;-80
2023/12/10 04:57:43;;;;;;;;;3.67;2.67;;;;;;;;5087484;27;46092;-80
2023/12/10 05:00:08;;;;;;;;;2.67;2.67;;;;;;;;5078421;28;45386;-80
2023/12/10 05:02:34;;;;;;;;;5.00;4.00;;;;;;;;5078229;28;46220;-80
2023/12/10 05:04:59;;;;;;;;;5.00;4.00;;;;;;;;5077879;28;47193;-79
2023/12/10 05:07:24;;;;;;;;;4.00;4.00;;;;;;;;5078826;28;45410;-80
2023/12/10 05:09:49;;;;;;;;;6.67;4.00;;;;;;;;5077943;28;45452;-81
2023/12/10 05:12:15;;;;;;;;;2.67;2.67;;;;;;;;5061049;28;47365;-80
2023/12/10 05:14:40;;;;;;;;;4.67;3.67;;;;;;;;5079013;28;45471;-81
2023/12/10 05:17:05;;;;;;;;;5.67;5.67;;;;;;;;5061129;28;45395;-78
2023/12/10 05:19:31;;;;;;;;;4.67;4.67;;;;;;;;5077979;28;45324;-79
2023/12/10 05:21:56;;;;;;;;;4.67;3.00;;;;;;;;5079131;28;45465;-80
2023/12/10 05:24:21;;;;;;;;;3.00;2.00;;;;;;;;5060631;28;46868;-79
2023/12/10 05:26:46;;;;;;;;;1.00;1.00;;;;;;;;5061127;28;45646;-80
2023/12/10 05:29:11;;;;;;;;;4.00;2.00;;;;;;;;5079514;28;45317;-80
2023/12/10 05:31:37;;;;;;;;;3.67;3.00;;;;;;;;5060904;28;46846;-80
2023/12/10 05:34:02;;;;;;;;;4.00;3.00;;;;;;;;5061623;28;47234;-81
2023/12/10 05:36:27;;;;;;;;;4.00;2.67;;;;;;;;5063992;28;45296;-80
2023/12/10 05:38:52;;;;;;;;;2.67;2.67;;;;;;;;5082774;28;45407;-81
2023/12/10 05:41:18;;;;;;;;;2.00;2.00;;;;;;;;5064231;28;47203;-80
2023/12/10 05:43:43;;;;;;;;;4.67;2.67;;;;;;;;5064103;28;46706;-81
2023/12/10 05:46:09;;;;;;;;;7.00;4.33;;;;;;;;5064073;28;45309;-81
2023/12/10 05:48:34;;;;;;;;;3.33;1.67;;;;;;;;5082430;28;45369;-80
2023/12/10 05:50:59;;;;;;;;;4.67;3.67;;;;;;;;5063807;28;46116;-80
2023/12/10 05:53:24;;;;;;;;;5.67;4.00;;;;;;;;5064234;28;47261;-80
2023/12/10 05:55:49;;;;;;;;;2.67;2.67;;;;;;;;5063975;28;45278;-80
2023/12/10 05:58:15;;;;;;;;;4.00;3.00;;;;;;;;5076036;28;45482;-80
2023/12/10 06:00:40;;;;;;;;;3.00;3.00;;;;;;;;5097790;27;46333;-80
2023/12/10 06:03:05;;;;;;;;;4.00;2.00;;;;;;;;5070375;28;48026;-80
2023/12/10 06:05:30;;;;;;;;;2.33;2.33;;;;;;;;5081339;28;45270;-80
2023/12/10 06:07:56;;;;;;;;;3.67;2.33;;;;;;;;5062717;28;45339;-79
2023/12/10 06:10:21;;;;;;;;;1.00;1.00;;;;;;;;5079471;28;46405;-80
2023/12/10 06:12:46;;;;;;;;;2.33;2.00;;;;;;;;5062652;28;48416;-79
2023/12/10 06:15:11;;;;;;;;;3.00;2.00;;;;;;;;5063650;28;46166;-79
2023/12/10 06:17:37;;;;;;;;;3.33;3.33;;;;;;;;5063921;28;45868;-79
2023/12/10 06:20:04;;;;;;;;;5.00;2.00;;;;;;;;5080470;28;46976;-82
2023/12/10 06:22:29;;;;;;;;;4.00;4.00;;;;;;;;5080292;28;47218;-82
2023/12/10 06:24:55;;;;;;;;;3.00;2.67;;;;;;;;5080323;28;45598;-82
2023/12/10 06:27:20;;;;;;;;;2.33;1.00;;;;;;;;5080678;28;45433;-82
2023/12/10 06:29:45;;;;;;;;;4.67;3.67;;;;;;;;5063291;28;45316;-79
2023/12/10 06:32:10;;;;;;;;;4.67;3.00;;;;;;;;5081673;28;46213;-81
2023/12/10 06:34:35;;;;;;;;;6.00;5.00;;;;;;;;5079755;28;45279;-81
2023/12/10 06:37:01;;;;;;;;;3.67;3.00;;;;;;;;5081286;28;45520;-82
2023/12/10 06:39:26;;;;;;;;;3.67;2.67;;;;;;;;5063129;28;46100;-80
2023/12/10 06:41:51;;;;;;;;;3.67;2.00;;;;;;;;5080114;28;45690;-80
2023/12/10 06:44:21;;;;;;;;;4.00;3.00;;;;;;;;5063112;28;45468;-81
2023/12/10 06:46:46;;;;;;;;;5.00;2.33;;;;;;;;5080398;28;45283;-80
2023/12/10 06:49:11;;;;;;;;;4.00;4.00;;;;;;;;5079713;28;46838;-79
2023/12/10 06:51:37;;;;;;;;;3.00;2.00;;;;;;;;5081278;28;45343;-79
2023/12/10 06:54:02;;;;;;;;;4.00;4.00;;;;;;;;5080176;28;45723;-81
2023/12/10 06:56:27;;;;;;;;;1.00;1.00;;;;;;;;5081405;28;45489;-81
2023/12/10 06:58:52;;;;;;;;;7.00;3.67;;;;;;;;5096758;27;46952;-80
2023/12/10 07:01:17;;;;;;;;;4.00;4.00;;;;;;;;5080032;28;47333;-81
2023/12/10 07:03:42;;;;;;;;;3.67;2.33;;;;;;;;5096856;27;45578;-81
2023/12/10 07:06:08;;;;;;;;;6.00;3.00;;;;;;;;5081264;27;45327;-80
2023/12/10 07:08:33;;;;;;;;;2.67;2.00;;;;;;;;5096854;27;47255;-81
2023/12/10 07:10:58;;;;;;;;;7.67;3.33;;;;;;;;5079786;28;47652;-80
2023/12/10 07:13:23;;;;;;;;;4.00;4.00;;;;;;;;5080119;27;45327;-81
2023/12/10 07:15:48;;;;;;;;;6.33;3.00;;;;;;;;5077473;28;45524;-81
2023/12/10 07:18:14;;;;;;;;;3.00;2.00;;;;;;;;5044782;28;45639;-81
2023/12/10 07:20:39;;;;;;;;;2.67;2.67;;;;;;;;5062382;28;45873;-81
2023/12/10 07:23:04;;;;;;;;;7.00;5.00;;;;;;;;5078450;28;45406;-81
2023/12/10 07:25:30;;;;;;;;;6.00;5.00;;;;;;;;5079609;28;45366;-81
2023/12/10 07:27:55;;;;;;;;;5.00;4.00;;;;;;;;5080773;28;45384;-81
2023/12/10 07:30:20;;;;;;;;;4.67;4.33;;;;;;;;5079760;28;45596;-81
2023/12/10 07:32:46;;;;;;;;;10.00;6.00;;;;;;;;5079292;28;45264;-81
2023/12/10 07:35:11;;;;;;;;;6.00;5.33;;;;;;;;5080747;28;45228;-82
2023/12/10 07:37:36;;;;;;;;;5.00;4.00;;;;;;;;5078959;28;47164;-81
2023/12/10 07:40:02;;;;;;;;;6.33;4.00;;;;;;;;5079158;28;47671;-81
2023/12/10 07:42:27;;;;;;;;;5.67;4.00;;;;;;;;5079269;28;45845;-80
2023/12/10 07:44:53;;;;;;;;;5.67;3.00;;;;;;;;5079149;28;45315;-80
2023/12/10 07:47:18;;;;;;;;;3.33;3.33;;;;;;;;5080489;28;45255;-81
2023/12/10 07:49:43;;;;;;;;;6.00;5.00;;;;;;;;5078987;28;47193;-78
2023/12/10 07:52:08;;;;;;;;;3.67;3.67;;;;;;;;5080239;28;45420;-79
2023/12/10 07:54:34;;;;;;;;;5.67;5.00;;;;;;;;5078585;28;45379;-81
2023/12/10 07:56:59;;;;;;;;;4.33;2.67;;;;;;;;5079417;27;46237;-80
2023/12/10 07:59:24;;;;;;;;;4.33;3.00;;;;;;;;5078183;28;48403;-79
2023/12/10 08:01:49;;;;;;;;;4.33;3.00;;;;;;;;5079527;28;45405;-80
2023/12/10 08:04:14;;;;;;;;;4.33;4.33;;;;;;;;5061342;28;45239;-81
2023/12/10 08:06:40;;;;;;;;;3.33;3.00;;;;;;;;5060147;28;45414;-77
2023/12/10 08:09:05;;;;;;;;;4.00;3.00;;;;;;;;5079718;28;45358;-78
2023/12/10 08:11:31;;;;;;;;;6.33;3.67;;;;;;;;5078770;28;45595;-79
2023/12/10 08:13:56;;;;;;;;;8.67;5.00;;;;;;;;5061859;28;45364;-79
2023/12/10 08:16:22;;;;;;;;;7.33;5.00;;;;;;;;5078768;28;46598;-79
2023/12/10 08:18:47;;;;;;;;;5.00;5.00;;;;;;;;5061430;28;48336;-78
2023/12/10 08:21:14;;;;;;;;;5.00;4.00;;;;;;;;5061753;28;45248;-80
2023/12/10 08:23:39;;;;;;;;;7.33;4.33;;;;;;;;5078877;28;45398;-79
2023/12/10 08:26:04;;;;;;;;;5.00;4.00;;;;;;;;5078449;28;45678;-78
2023/12/10 08:28:29;;;;;;;;;5.33;4.67;;;;;;;;5077767;28;48346;-78
2023/12/10 08:30:55;;;;;;;;;4.33;3.00;;;;;;;;5078679;28;46037;-78
2023/12/10 08:33:20;;;;;;;;;3.67;3.67;;;;;;;;5080031;28;45252;-79
2023/12/10 08:35:45;;;;;;;;;6.00;6.00;;;;;;;;5079409;28;45512;-78
2023/12/10 08:38:10;;;;;;;;;9.00;6.67;;;;;;;;5079673;27;45330;-78
2023/12/10 08:40:35;;;;;;;;;3.00;1.33;;;;;;;;5078587;28;45608;-78
2023/12/10 08:43:01;;;;;;;;;7.00;4.67;;;;;;;;5061490;28;45397;-78
2023/12/10 08:45:26;;;;;;;;;7.33;5.33;;;;;;;;5077963;28;45917;-79
2023/12/10 08:47:51;;;;;;;;;4.67;4.00;;;;;;;;5078123;28;47961;-79
2023/12/10 08:50:17;;;;;;;;;4.67;3.67;;;;;;;;5078623;28;45429;-77
2023/12/10 08:52:42;;;;;;;;;5.00;3.33;;;;;;;;5076227;28;45429;-78
2023/12/10 08:55:07;;;;;;;;;7.33;4.67;;;;;;;;5078494;28;45518;-78
2023/12/10 08:57:32;;;;;;;;;6.33;4.00;;;;;;;;5061597;28;48125;-78
2023/12/10 09:00:00;;;;;;;;;9.00;5.33;;;;;;;;5078919;28;45339;-78
2023/12/10 09:02:25;;;;;;;;;4.00;4.00;;;;;;;;5074481;28;45235;-77
2023/12/10 09:04:51;;;;;;;;;7.33;5.33;;;;;;;;5078986;28;45525;-79
2023/12/10 09:07:16;;;;;;;;;5.00;5.00;;;;;;;;5077441;28;47844;-78
2023/12/10 09:09:41;;;;;;;;;5.33;5.00;;;;;;;;5079613;28;45619;-79
2023/12/10 09:12:06;;;;;;;;;4.00;4.00;;;;;;;;5064045;28;45481;-79
2023/12/10 09:14:32;;;;;;;;;7.00;6.00;;;;;;;;5083986;28;45237;-77
2023/12/10 09:16:58;;;;;;;;;1.00;0.00;;;;;;;;5064646;28;47222;-76
2023/12/10 09:19:24;;;;;;;;;7.67;6.00;;;;;;;;5083425;28;45232;-80
2023/12/10 09:21:50;;;;;;;;;4.00;3.00;;;;;;;;5064823;28;45351;-78
2023/12/10 09:24:15;;;;;;;;;6.00;6.00;;;;;;;;5064091;28;45875;-79
2023/12/10 09:26:40;;;;;;;;;5.67;4.00;;;;;;;;5082642;28;46061;-78
2023/12/10 09:29:05;;;;;;;;;5.67;4.00;;;;;;;;5064258;28;45351;-78
2023/12/10 09:31:30;;;;;;;;;9.00;6.67;;;;;;;;5082765;28;45342;-78
2023/12/10 09:33:56;;;;;;;;;6.00;6.00;;;;;;;;5082462;28;45528;-79
2023/12/10 09:36:21;;;;;;;;;6.67;6.33;;;;;;;;5081740;28;45360;-79
2023/12/10 09:38:46;;;;;;;;;8.33;7.00;;;;;;;;5063001;28;45617;-80
2023/12/10 09:41:11;;;;;;;;;6.00;4.00;;;;;;;;5082297;28;45302;-80
2023/12/10 09:43:36;;;;;;;;;3.67;3.67;;;;;;;;5082539;28;45319;-76
2023/12/10 09:46:03;;;;;;;;;7.67;6.67;;;;;;;;5079625;28;45608;-76
2023/12/10 09:48:30;;;;;;;;;5.33;5.33;;;;;;;;5062505;28;45605;-76
2023/12/10 09:50:55;;;;;;;;;4.33;4.33;;;;;;;;5061779;28;45324;-77
2023/12/10 09:53:21;;;;;;;;;4.33;3.67;;;;;;;;5066824;27;45880;-77
2023/12/10 09:55:47;;;;;;;;;5.00;5.00;;;;;;;;5080211;28;46388;-78
2023/12/10 09:58:12;;;;;;;;;4.00;4.00;;;;;;;;5081599;28;45303;-77
2023/12/10 10:00:37;;;;;;;;;9.00;6.33;;;;;;;;5081745;28;45160;-78
2023/12/10 10:03:03;;;;;;;;;6.67;4.00;;;;;;;;5080184;28;45450;-78
2023/12/10 10:05:28;;;;;;;;;6.00;6.00;;;;;;;;5080085;28;45312;-77
2023/12/10 10:07:53;;;;;;;;;6.33;4.67;;;;;;;;5080557;28;45468;-76
2023/12/10 10:10:19;;;;;;;;;3.67;3.00;;;;;;;;5077628;28;45386;-76
2023/12/10 10:12:44;;;;;;;;;8.33;6.00;;;;;;;;5053344;28;46359;-75
2023/12/10 10:15:10;;;;;;;;;2.00;2.00;;;;;;;;5079957;28;45567;-76
2023/12/10 10:17:36;;;;;;;;;4.33;4.33;;;;;;;;5080078;28;45427;-79
2023/12/10 10:20:05;;;;;;;;;6.00;5.67;;;;;;;;5080564;28;45572;-79
2023/12/10 10:22:30;;;;;;;;;6.67;5.00;;;;;;;;5062383;28;46014;-78
2023/12/10 10:24:56;;;;;;;;;4.00;3.33;;;;;;;;5081070;28;45327;-80
2023/12/10 10:27:21;;;;;;;;;7.67;6.00;;;;;;;;5063062;28;45290;-78
2023/12/10 10:29:52;;;;;;;;;5.00;4.00;;;;;;;;5081595;28;45419;-79
2023/12/10 10:32:18;;;;;;;;;8.00;5.00;;;;;;;;5062869;28;45809;-78
2023/12/10 10:34:44;;;;;;;;;6.00;4.00;;;;;;;;5079484;28;47770;-79
2023/12/10 10:37:10;;;;;;;;;3.67;3.67;;;;;;;;5081009;28;45256;-78
2023/12/10 10:39:35;;;;;;;;;3.33;3.33;;;;;;;;5060794;28;45526;-77
2023/12/10 10:42:04;;;;;;;;;7.33;3.67;;;;;;;;5081127;28;45343;-80
2023/12/10 10:44:30;;;;;;;;;7.33;4.00;;;;;;;;5079376;28;45859;-79
2023/12/10 10:46:56;;;;;;;;;3.67;3.67;;;;;;;;5079935;28;45362;-79
2023/12/10 10:49:21;;;;;;;;;6.00;6.00;;;;;;;;5062298;28;45429;-79
2023/12/10 10:51:47;;;;;;;;;4.00;2.67;;;;;;;;5080763;28;45464;-79
2023/12/10 10:54:12;;;;;;;;;4.67;3.00;;;;;;;;5078680;28;48156;-78
2023/12/10 10:56:37;;;;;;;;;7.00;5.00;;;;;;;;5078483;28;45471;-79
2023/12/10 10:59:03;;;;;;;;;5.67;3.67;;;;;;;;5061591;28;45510;-78
2023/12/10 11:01:41;;;;;;;;;7.67;4.00;;;;;;;;5076404;28;45347;-79
2023/12/10 11:04:10;;;;;;;;;4.00;2.33;;;;;;;;5062432;28;47398;-79
2023/12/10 11:06:36;;;;;;;;;4.67;3.00;;;;;;;;5080364;28;45353;-79
2023/12/10 11:09:01;;;;;;;;;6.00;5.67;;;;;;;;5079132;28;45334;-79
2023/12/10 11:11:26;;;;;;;;;4.67;4.00;;;;;;;;5080801;28;45331;-78
2023/12/10 11:13:52;;;;;;;;;3.33;3.33;;;;;;;;5080667;28;45363;-79
2023/12/10 11:16:18;;;;;;;;;2.67;2.67;;;;;;;;5080742;28;45283;-78
2023/12/10 11:18:56;;;;;;;;;5.33;5.00;;;;;;;;5062384;28;45261;-77
2023/12/10 11:21:21;;;;;;;;;5.00;4.00;;;;;;;;5062258;28;45838;-80
2023/12/10 11:23:46;;;;;;;;;2.33;2.00;;;;;;;;5079120;28;45457;-80
2023/12/10 11:26:12;;;;;;;;;2.67;2.33;;;;;;;;5079194;28;45361;-78
2023/12/10 11:28:37;;;;;;;;;5.00;4.33;;;;;;;;5045486;28;45431;-77
2023/12/10 11:31:02;;;;;;;;;5.33;4.00;;;;;;;;5078835;28;47360;-76
2023/12/10 11:33:27;;;;;;;;;3.67;2.00;;;;;;;;5079625;28;46425;-76
2023/12/10 11:36:00;;;;;;;;;7.33;5.67;;;;;;;;5078477;28;45339;-76
2023/12/10 11:38:25;;;;;;;;;4.33;4.33;;;;;;;;5079056;28;45298;-77
2023/12/10 11:40:52;;;;;;;;;7.00;6.00;;;;;;;;5078774;28;46063;-79
2023/12/10 11:43:18;;;;;;;;;6.00;4.00;;;;;;;;5078776;28;46751;-78
2023/12/10 11:45:44;;;;;;;;;5.33;4.33;;;;;;;;5080146;28;45375;-77
2023/12/10 11:48:09;;;;;;;;;4.33;4.33;;;;;;;;5078378;28;45440;-77
2023/12/10 11:50:36;;;;;;;;;3.00;3.00;;;;;;;;5079066;28;45492;-80
2023/12/10 11:53:02;;;;;;;;;7.00;5.00;;;;;;;;5079466;28;45410;-78
2023/12/10 11:55:27;;;;;;;;;6.67;4.00;;;;;;;;5079532;28;45364;-78
2023/12/10 11:57:55;;;;;;;;;5.67;5.67;;;;;;;;5070466;28;45399;-78
2023/12/10 12:00:20;;;;;;;;;4.33;3.33;;;;;;;;5080175;27;45515;-77
2023/12/10 12:02:46;;;;;;;;;6.67;6.67;;;;;;;;5076660;28;45482;-78
2023/12/10 12:05:12;;;;;;;;;7.00;6.67;;;;;;;;5061584;28;45260;-78
2023/12/10 12:07:38;;;;;;;;;2.67;1.67;;;;;;;;5065586;28;45231;-80
2023/12/10 12:10:04;;;;;;;;;5.33;3.33;;;;;;;;5060688;28;46884;-80
2023/12/10 12:12:29;;;;;;;;;5.00;3.00;;;;;;;;5089022;27;47482;-79
2023/12/10 12:14:55;;;;;;;;;3.00;3.00;;;;;;;;5078731;27;45336;-81
2023/12/10 12:17:21;;;;;;;;;4.00;4.00;;;;;;;;5078966;28;45484;-79
2023/12/10 12:19:46;;;;;;;;;4.67;4.67;;;;;;;;5061783;28;47550;-79
2023/12/10 12:22:11;;;;;;;;;6.00;3.33;;;;;;;;5061524;28;48096;-80
2023/12/10 12:24:39;;;;;;;;;5.00;4.00;;;;;;;;5061151;28;45308;-79
2023/12/10 12:27:05;;;;;;;;;5.33;5.33;;;;;;;;5061293;28;45287;-79
2023/12/10 12:29:30;;;;;;;;;3.00;1.33;;;;;;;;5079622;28;45608;-79
2023/12/10 12:31:55;;;;;;;;;5.33;5.00;;;;;;;;5073883;27;48063;-81
2023/12/10 12:34:20;;;;;;;;;7.33;4.33;;;;;;;;5078385;28;45564;-80
2023/12/10 12:36:46;;;;;;;;;6.33;4.67;;;;;;;;5060052;28;45316;-80
2023/12/10 12:39:11;;;;;;;;;7.00;6.00;;;;;;;;5055044;28;46656;-80
2023/12/10 12:41:36;;;;;;;;;4.00;3.00;;;;;;;;5074162;28;45871;-82
2023/12/10 12:44:01;;;;;;;;;6.00;5.33;;;;;;;;5079213;28;45522;-80
2023/12/10 12:46:27;;;;;;;;;8.00;5.00;;;;;;;;5063897;28;45670;-79
2023/12/10 12:48:52;;;;;;;;;4.00;3.33;;;;;;;;5081581;28;45567;-77
2023/12/10 12:51:17;;;;;;;;;6.00;4.33;;;;;;;;5063585;28;47278;-79
2023/12/10 12:53:42;;;;;;;;;6.00;4.67;;;;;;;;5082426;28;45404;-79
2023/12/10 12:56:08;;;;;;;;;5.67;4.33;;;;;;;;5080731;28;45650;-77
2023/12/10 12:58:33;;;;;;;;;4.33;4.00;;;;;;;;5080527;28;45553;-78
2023/12/10 13:00:58;;;;;;;;;10.33;5.33;;;;;;;;5063010;28;47380;-78
2023/12/10 13:03:23;;;;;;;;;8.67;7.67;;;;;;;;5063898;28;45291;-79
2023/12/10 13:05:48;;;;;;;;;4.00;4.00;;;;;;;;5081946;28;45489;-80
2023/12/10 13:08:13;;;;;;;;;6.00;4.00;;;;;;;;5067531;27;45678;-81
2023/12/10 13:10:39;;;;;;;;;9.67;6.67;;;;;;;;5078350;28;47158;-80
2023/12/10 13:13:04;;;;;;;;;2.33;2.33;;;;;;;;5079831;28;45442;-79
2023/12/10 13:15:29;;;;;;;;;5.67;4.00;;;;;;;;5064004;28;45394;-80
2023/12/10 13:17:54;;;;;;;;;5.67;4.33;;;;;;;;5082120;28;45380;-79
2023/12/10 13:20:20;;;;;;;;;5.00;5.00;;;;;;;;5063249;28;48275;-80
2023/12/10 13:22:45;;;;;;;;;6.33;6.33;;;;;;;;5063719;28;45434;-80
2023/12/10 13:25:10;;;;;;;;;6.33;5.33;;;;;;;;5081495;28;45528;-81
2023/12/10 13:27:36;;;;;;;;;3.67;3.00;;;;;;;;5079916;28;47294;-80
2023/12/10 13:30:01;;;;;;;;;8.33;8.00;;;;;;;;5081523;28;45409;-81
2023/12/10 13:32:27;;;;;;;;;5.00;4.00;;;;;;;;5081755;28;45330;-79
2023/12/10 13:34:52;;;;;;;;;8.00;5.33;;;;;;;;5081688;28;45311;-79
2023/12/10 13:37:27;;;;;;;;;5.67;5.00;;;;;;;;5081504;28;45355;-79
2023/12/10 13:39:52;;;;;;;;;7.00;5.00;;;;;;;;5096615;27;48355;-80
2023/12/10 13:42:23;;;;;;;;;4.33;4.33;;;;;;;;5079816;28;45484;-80
2023/12/10 13:45:01;;;;;;;;;6.00;3.33;;;;;;;;5096944;27;45366;-80
2023/12/10 13:47:31;;;;;;;;;4.00;4.00;;;;;;;;5080688;27;45425;-79
2023/12/10 13:50:00;;;;;;;;;3.67;3.67;;;;;;;;5096615;27;45605;-79
2023/12/10 13:52:35;;;;;;;;;6.33;5.33;;;;;;;;5080881;27;45513;-78
2023/12/10 13:55:04;;;;;;;;;1.67;1.67;;;;;;;;5087128;27;45596;-78
2023/12/10 13:57:33;;;;;;;;;6.00;5.00;;;;;;;;5080805;28;45585;-80
2023/12/10 13:59:58;;;;;;;;;5.33;5.00;;;;;;;;5081384;28;46278;-77
2023/12/10 14:02:27;;;;;;;;;4.67;4.67;;;;;;;;5083036;28;45308;-77
2023/12/10 14:04:52;;;;;;;;;5.67;3.33;;;;;;;;5081778;28;45337;-77
2023/12/10 14:07:18;;;;;;;;;2.67;2.67;;;;;;;;5075511;28;45949;-78
2023/12/10 14:09:43;;;;;;;;;6.67;6.67;;;;;;;;5080814;28;45386;-77
2023/12/10 14:15:12;;;;;;;;;9.00;5.67;;;;;;;;5061567;28;45470;-78
2023/12/10 14:17:37;;;;;;;;;4.33;3.33;;;;;;;;5069171;28;45556;-76
2023/12/10 14:20:03;;;;;;;;;5.33;5.00;;;;;;;;5079489;28;47943;-81
2023/12/10 14:22:28;;;;;;;;;3.00;2.33;;;;;;;;5080536;28;45379;-77
2023/12/10 14:24:54;;;;;;;;;7.00;4.33;;;;;;;;5078390;28;45558;-77
2023/12/10 14:27:19;;;;;;;;;3.67;2.67;;;;;;;;5078496;28;45543;-77
2023/12/10 14:29:44;;;;;;;;;6.00;4.67;;;;;;;;5065519;28;45464;-76
2023/12/10 14:32:09;;;;;;;;;6.67;5.00;;;;;;;;5061404;28;45312;-76
2023/12/10 14:34:34;;;;;;;;;5.67;5.00;;;;;;;;5077196;28;45284;-76
2023/12/10 14:36:59;;;;;;;;;4.00;4.00;;;;;;;;5060515;28;46480;-77